• Join FlightAware (Why Join?)
  • Login
  • US Flag 
05:45PM EDT


 

Airport Tracker/Info


-or-


 

Live Flight TrackerFlight Track Log ✈ UPS2592 ✈ 18-Jul-2013 ✈ KSDF - KBIL

Flight Track Log - Related Links

Times and Time Zones

All times are in EDT time to prevent confusion due to time zone crossing. See the UPS2592 flight status page for this flight to view local times or setup timezone preferences in your user account.

Time Position Orientation Groundspeed Altitude Reporting Facility
EDT Latitude Longitude Course Direction KTS MPH feet Rate Location/Type
06:05PM 38.1710 -85.7400 292° West 2 2  Level FlightAware
06:10PM 38.1710 -85.7420 270° West 31 36 60 Level FlightAware
06:10PM 38.1690 -85.7410 159° South 15 17 120 Level FlightAware
06:11PM 38.1650 -85.7400 169° South 22 25 180 Level FlightAware
06:14PM 38.3166 -86.0540 302° West  Level Estimated
06:14PM 38.1820 -85.7470 302° West 176 203 700  Level FlightAware
06:14PM 38.1920 -85.7500 347° North 173 199 1,400 2,700 Climbing FlightAware
06:14PM 38.2170 -85.7630 338° Northwest 196 226 2,700 1,860 Climbing FlightAware
06:15PM 38.2410 -85.7800 331° Northwest 239 275 3,300 1,680 Climbing FlightAware
06:15PM 38.2700 -85.8030 328° Northwest 271 312 4,300 2,400 Climbing FlightAware
06:15PM 38.2770 -85.8200 298° West 275 316 4,900 2,880 Climbing FlightAware
06:16PM 38.2790 -85.8420 277° West 280 322 5,600 3,240 Climbing FlightAware
06:16PM 38.2700 -85.8950 258° West 287 330 7,400 3,480 Climbing FlightAware
06:16PM 38.2600 -85.9090 228° Southwest 288 331 8,100 3,300 Climbing FlightAware
06:17PM 38.2350 -85.9350 219° Southwest 292 336 9,400 2,520 Climbing FlightAware
06:17PM 38.1910 -85.9800 219° Southwest 327 376 10,800 1,680 Climbing FlightAware
06:18PM 38.1430 -86.0310 220° Southwest 373 429 11,600 1,800 Climbing FlightAware
06:19PM 38.0920 -86.0940 224° Southwest 393 452 13,200 2,340 Climbing FlightAware
06:19PM 38.0710 -86.1530 246° West 405 466 14,300 780 Climbing FlightAware
06:21PM 38.0270 -86.3770 256° West 412 474 15,000 2,040 Climbing FlightAware
06:22PM 38.0300 -86.5440 271° West 443 510 20,200 3,780 Climbing FlightAware
06:23PM 38.0180 -86.7050 265° West 457 526 22,000 1,980 Climbing FlightAware
06:24PM 38.0120 -86.8130 266° West 467 537 23,100 1,620 Climbing FlightAware
06:24PM 38.0140 -86.8730 272° West 473 544 23,700 1,440 Climbing FlightAware
06:27PM 38.0910 -87.3130 283° West 497 572 27,500 1,500 Climbing FlightAware
06:27PM 38.1120 -87.4260 283° West 493 567 28,700 1,560 Climbing FlightAware
06:28PM 38.1340 -87.5440 283° West 492 566 29,700 1,260 Climbing FlightAware
06:29PM 38.1560 -87.6630 283° West 492 566 30,500 1,260 Climbing FlightAware
06:29PM 38.1740 -87.7640 283° West 486 559 31,400 1,140 Climbing FlightAware
06:30PM 38.1950 -87.8780 283° West 489 563 32,000 420 Climbing FlightAware
06:31PM 38.2170 -88.0010 283° West 487 560 32,000  Level FlightAware
06:31PM 38.2370 -88.1090 283° West 483 556 32,000  Level FlightAware
06:32PM 38.2590 -88.2330 283° West 480 552 32,000  Level FlightAware
06:33PM 38.2780 -88.3440 282° West 484 557 32,000  Level FlightAware
06:33PM 38.2970 -88.4520 283° West 486 559 32,000  Level FlightAware
06:34PM 38.3140 -88.5500 282° West 487 560 32,000  Level FlightAware
06:35PM 38.3370 -88.6760 283° West 487 560 32,000  Level FlightAware
06:35PM 38.3560 -88.7880 282° West 488 562 32,000  Level FlightAware
06:36PM 38.3780 -88.9150 282° West 488 562 32,000  Level FlightAware
06:37PM 38.3960 -89.0240 282° West 487 560 32,000  Level FlightAware
06:37PM 38.4180 -89.1500 283° West 488 562 32,000  Level FlightAware
06:38PM 38.4300 -89.2610 278° West 488 562 32,000  Level FlightAware
06:39PM 38.4410 -89.3810 277° West 487 560 32,000  Level FlightAware
06:39PM 38.4510 -89.4830 277° West 482 555 32,000  Level FlightAware
06:40PM 38.4620 -89.5960 277° West 482 555 32,000  Level FlightAware
06:41PM 38.4760 -89.7540 277° West 482 555 32,000  Level FlightAware
06:42PM 38.4850 -89.8700 276° West 482 555 32,000  Level FlightAware
06:43PM 38.5330 -90.0680 287° West 481 554 32,000  Level FlightAware
06:44PM 38.5540 -90.1540 287° West 481 554 32,000  Level FlightAware
06:44PM 38.5810 -90.2670 287° West 481 554 32,000  Level FlightAware
06:45PM 38.6590 -90.3040 340° North 485 558 32,000  Level FlightAware
06:45PM 38.7120 -90.4030 304° West 485 558 32,000  Level FlightAware
06:46PM 38.7780 -90.5300 304° West 481 554 32,000  Level FlightAware
06:47PM 38.8150 -90.6040 303° West 481 554 32,000  Level FlightAware
06:48PM 38.8960 -90.7540 305° West 478 550 32,000  Level FlightAware
06:49PM 38.9620 -90.8820 304° West 478 550 32,000  Level FlightAware
06:49PM 39.0000 -90.9570 303° West 478 550 32,000  Level FlightAware
06:50PM 39.0600 -91.0720 304° West 479 551 32,000  Level FlightAware
06:51PM 39.1140 -91.1760 304° West 478 550 32,000  Level FlightAware
06:51PM 39.1670 -91.2810 303° West 478 550 32,000  Level FlightAware
06:52PM 39.2140 -91.3730 303° West 477 549 32,000  Level FlightAware
06:53PM 39.2590 -91.4620 303° West 476 548 32,000  Level FlightAware
06:53PM 39.3100 -91.5590 304° West 477 549 32,000  Level FlightAware
06:54PM 39.3630 -91.6670 302° West 479 551 32,000  Level FlightAware
06:55PM 39.4040 -91.7460 304° West 480 552 32,000  Level FlightAware
06:55PM 39.4480 -91.8300 304° West 482 555 32,000  Level FlightAware
06:57PM 39.5520 -92.0410 303° West 482 555 32,000  Level FlightAware
06:57PM 39.6070 -92.1500 303° West 484 557 32,000  Level FlightAware
06:58PM 39.6480 -92.2340 302° West 484 557 32,000  Level FlightAware
06:59PM 39.6970 -92.3370 302° West 484 557 32,000  Level FlightAware
07:02PM 39.8760 -92.7110 302° West 484 557 32,000  Level FlightAware
07:03PM 39.9730 -92.8940 305° West 485 558 32,000  Level FlightAware
07:04PM 40.0470 -93.0500 302° West 483 556 32,000  Level FlightAware
07:04PM 40.1020 -93.1630 302° West 483 556 32,000  Level FlightAware
07:05PM 40.1530 -93.2690 302° West 482 555 32,000  Level FlightAware
07:06PM 40.2010 -93.3680 302° West 483 556 32,000  Level FlightAware
07:06PM 40.2490 -93.4700 302° West 485 558 32,000  Level FlightAware
07:07PM 40.2710 -93.5151 303° West 486 559 32,000  Level FlightAware ADS-B
07:07PM 40.3071 -93.5901 302° West 488 562 32,000  Level FlightAware ADS-B
07:08PM 40.3429 -93.6654 302° West 489 563 32,000  Level FlightAware ADS-B
07:08PM 40.3886 -93.7611 302° West 491 565 32,000  Level FlightAware ADS-B
07:09PM 40.4255 -93.8396 302° West 491 565 32,000  Level FlightAware ADS-B
07:09PM 40.4712 -93.9387 301° West 492 566 32,000  Level FlightAware ADS-B
07:10PM 40.5026 -94.0076 301° West 491 565 32,000  Level FlightAware ADS-B
07:10PM 40.5329 -94.0879 296° West 491 565 32,000  Level FlightAware ADS-B
07:11PM 40.5635 -94.1709 296° West 491 565 32,000  Level FlightAware ADS-B
07:11PM 40.5935 -94.2518 296° West 493 567 32,000  Level FlightAware ADS-B
07:12PM 40.6234 -94.3326 296° West 494 568 32,000  Level FlightAware ADS-B
07:12PM 40.6537 -94.4165 295° West 495 570 32,000  Level FlightAware ADS-B
07:13PM 40.6836 -94.4979 296° West 496 571 32,000  Level FlightAware ADS-B
07:13PM 40.7137 -94.5799 296° West 497 572 32,000  Level FlightAware ADS-B
07:14PM 40.7521 -94.6865 295° West 497 572 32,000  Level FlightAware ADS-B
07:15PM 40.7819 -94.7682 296° West 496 571 32,000  Level FlightAware ADS-B
07:15PM 40.8134 -94.8581 295° West 493 567 32,000  Level FlightAware ADS-B
07:16PM 40.8452 -94.9450 296° West 492 566 32,000  Level FlightAware ADS-B
07:16PM 40.8743 -95.0264 295° West 494 568 32,000  Level FlightAware ADS-B
07:17PM 40.9038 -95.1088 295° West 499 574 32,000  Level FlightAware ADS-B
07:17PM 40.9333 -95.1916 295° West 501 577 32,000  Level FlightAware ADS-B
07:18PM 40.9662 -95.2856 295° West 498 573 32,000  Level FlightAware ADS-B
07:18PM 40.9954 -95.3680 295° West 494 568 32,000  Level FlightAware ADS-B
07:19PM 41.0246 -95.4500 295° West 492 566 32,000  Level FlightAware ADS-B
07:19PM 41.0537 -95.5345 295° West 492 566 32,000  Level FlightAware ADS-B
07:20PM 41.0829 -95.6166 295° West 492 566 32,000  Level FlightAware ADS-B
07:20PM 41.1121 -95.7014 295° West 492 566 32,000  Level FlightAware ADS-B
07:21PM 41.1418 -95.7863 295° West 491 565 32,000  Level FlightAware ADS-B
07:21PM 41.1711 -95.8711 295° West 491 565 32,000  Level FlightAware ADS-B
07:22PM 41.1997 -95.9531 295° West 491 565 32,000  Level FlightAware ADS-B
07:22PM 41.2280 -96.0352 295° West 491 565 32,000  Level FlightAware ADS-B
07:23PM 41.2571 -96.1201 295° West 491 565 32,000  Level FlightAware ADS-B
07:23PM 41.2856 -96.2025 295° West 492 566 32,000  Level FlightAware ADS-B
07:24PM 41.3148 -96.2880 294° West 493 567 32,000  Level FlightAware ADS-B
07:24PM 41.3477 -96.3817 295° West 493 567 32,000  Level FlightAware ADS-B
07:25PM 41.3774 -96.4700 294° West 494 568 32,000  Level FlightAware ADS-B
07:25PM 41.4057 -96.5529 294° West 493 567 32,000  Level FlightAware ADS-B
07:26PM 41.4351 -96.6414 294° West 493 567 32,000  Level FlightAware ADS-B
07:27PM 41.4645 -96.7276 294° West 493 567 32,000  Level FlightAware ADS-B
07:27PM 41.4946 -96.8162 294° West 493 567 32,000  Level FlightAware ADS-B
07:28PM 41.5225 -96.8992 294° West 492 566 32,000  Level FlightAware ADS-B
07:28PM 41.5502 -96.9821 294° West 489 563 32,000  Level FlightAware ADS-B
07:29PM 41.5776 -97.0671 293° West 485 558 32,000  Level FlightAware ADS-B
07:29PM 41.6077 -97.1573 294° West 483 556 32,000  Level FlightAware ADS-B
07:30PM 41.6348 -97.2391 294° West 482 555 32,000  Level FlightAware ADS-B
07:30PM 41.6620 -97.3207 294° West 483 556 32,000  Level FlightAware ADS-B
07:31PM 41.6921 -97.4136 293° West 482 555 32,000  Level FlightAware ADS-B
07:31PM 41.7198 -97.4984 294° West 482 555 32,000  Level FlightAware ADS-B
07:32PM 41.7543 -97.6020 294° West 482 555 32,000  Level FlightAware ADS-B
07:32PM 41.7809 -97.6841 294° West 481 554 32,000  Level FlightAware ADS-B
07:33PM 41.8088 -97.7712 293° West 479 551 32,000  Level FlightAware ADS-B
07:33PM 41.8362 -97.8557 294° West 478 550 32,000  Level FlightAware ADS-B
07:34PM 41.8631 -97.9398 293° West 476 548 32,000  Level FlightAware ADS-B
07:35PM 41.9192 -98.1153 293° West 475 547 32,000  Level FlightAware ADS-B
07:35PM 41.9459 -98.1992 293° West 475 547 32,000  Level FlightAware ADS-B
07:36PM 41.9718 -98.2806 293° West 475 547 32,000  Level FlightAware ADS-B
07:36PM 41.9976 -98.3619 293° West 475 547 32,000  Level FlightAware ADS-B
07:37PM 42.0295 -98.4625 293° West 475 547 32,000  Level FlightAware ADS-B
07:38PM 42.0553 -98.5439 293° West 475 547 32,000  Level FlightAware ADS-B
07:38PM 42.0810 -98.6254 293° West 475 547 32,000  Level FlightAware ADS-B
07:39PM 42.1167 -98.7397 293° West 475 547 32,000  Level FlightAware ADS-B
07:39PM 42.1435 -98.8265 293° West 472 543 32,000  Level FlightAware ADS-B
07:40PM 42.1693 -98.9106 293° West 472 543 32,000  Level FlightAware ADS-B
07:41PM 42.2041 -99.0218 293° West 472 543 32,000  Level FlightAware ADS-B
07:41PM 42.2295 -99.1030 293° West 471 542 32,000  Level FlightAware ADS-B
07:42PM 42.2544 -99.1843 293° West 470 541 32,000  Level FlightAware ADS-B
07:42PM 42.2802 -99.2710 292° West 469 540 32,000  Level FlightAware ADS-B
07:43PM 42.3049 -99.3524 292° West 470 541 32,000  Level FlightAware ADS-B
07:43PM 42.3313 -99.4389 292° West 469 540 32,000  Level FlightAware ADS-B
07:44PM 42.3609 -99.5338 293° West 470 541 32,000  Level FlightAware ADS-B
07:45PM 42.3892 -99.6289 293° West 468 539 32,000  Level Denver Center
07:46PM 42.4475 -99.8258 292° West 470 541 32,000  Level Denver Center
07:47PM 42.4969 -99.9881 293° West 466 536 32,000  Level Denver Center
07:48PM 42.5658 -100.1481 300° West 464 534 32,000  Level Denver Center
07:49PM 42.6325 -100.2889 303° West 462 532 32,000  Level Denver Center
07:50PM 42.7069 -100.4536 302° West 460 529 32,000  Level Denver Center
07:51PM 42.7775 -100.6078 302° West 458 527 32,000  Level Denver Center
07:52PM 42.8428 -100.7542 301° West 455 524 32,000  Level Denver Center
07:53PM 42.9217 -100.9306 301° West 454 522 32,000  Level Denver Center
07:54PM 42.9883 -101.0783 302° West 455 524 32,000  Level Denver Center
07:55PM 43.0533 -101.2256 301° West 454 522 32,000  Level Denver Center
07:56PM 43.1172 -101.3722 301° West 449 517 32,000  Level Denver Center
07:57PM 43.1822 -101.5208 301° West 453 521 32,000  Level Denver Center
07:58PM 43.2619 -101.7017 301° West 461 531 32,000  Level Denver Center
07:59PM 43.3242 -101.8433 301° West 457 526 32,000  Level Denver Center
08:00PM 43.3914 -102.0019 300° West 459 528 32,000  Level Denver Center
08:01PM 43.4553 -102.1553 300° West 455 524 32,000  Level Denver Center
08:02PM 43.5242 -102.3242 299° West 453 521 32,000  Level Denver Center
08:03PM 43.5817 -102.4669 299° West 448 516 32,000  Level Denver Center
08:04PM 43.6383 -102.6092 299° West 444 511 32,000  Level Denver Center
08:05PM 43.7092 -102.7786 300° West 449 517 32,000  Level Denver Center
08:06PM 43.7686 -102.9247 299° West 454 522 32,000  Level Denver Center
08:07PM 43.8361 -103.0953 299° West 454 522 32,000  Level Denver Center
08:08PM 43.8942 -103.2392 299° West 451 519 32,000  Level Denver Center
08:10PM 43.9606 -103.4067 299° West 446 513 32,000  Level Denver Center
08:11PM 44.0169 -103.5506 299° West 445 512 32,000  Level Denver Center
08:12PM 44.0825 -103.7175 299° West 445 512 32,000  Level Denver Center
08:13PM 44.1392 -103.8628 299° West 447 514 32,000  Level Denver Center
08:14PM 44.2044 -104.0331 298° West 447 514 32,000  Level Denver Center
08:15PM 44.2592 -104.1750 298° West 440 506 32,000  Level Denver Center
08:16PM 44.3222 -104.3406 298° West 435 501 32,000  Level Denver Center
08:17PM 44.3775 -104.4853 298° West 440 506 32,000  Level Denver Center
08:18PM 44.4411 -104.6503 298° West 435 501 32,000  Level Denver Center
08:19PM 44.4964 -104.7933 298° West 437 503 32,000  Level Denver Center
08:20PM 44.5586 -104.9644 297° West 440 506 32,000  Level Denver Center
08:21PM 44.6128 -105.1089 298° West 439 505 32,000  Level Denver Center
08:22PM 44.6756 -105.2767 298° West 436 502 32,000  Level Denver Center
08:23PM 44.7281 -105.4200 297° West 441 507 32,000  Level Denver Center
08:24PM 44.7836 -105.5728 297° West 440 506 32,000  Level Denver Center
08:25PM 44.8397 -105.7242 298° West 438 504 32,000  Level Denver Center
08:26PM 44.9056 -105.9075 297° West 438 504 32,000  Level Denver Center
08:27PM 44.9597 -106.0603 297° West 438 504 32,000  Level Denver Center
08:28PM 45.0139 -106.2125 297° West 437 503 32,000  Level Denver Center
08:29PM 45.0800 -106.3972 297° West 440 506 32,000 -180 Level Salt Lake Center
08:30PM 45.1344 -106.5494 297° West 435 501 31,700 -1,620 Descending Salt Lake Center
08:31PM 45.1864 -106.6989 296° West 428 493 28,700 -3,540 Descending Salt Lake Center
08:32PM 45.2383 -106.8472 296° West 423 487 24,500 -3,660 Descending Salt Lake Center
08:33PM 45.2900 -106.9953 296° West 422 486 21,200 -3,240 Descending Salt Lake Center
08:34PM 45.3506 -107.1706 296° West 420 483 17,900 -2,520 Descending Salt Lake Center
08:35PM 45.3969 -107.3083 296° West 403 464 16,100 -960 Descending Salt Lake Center
08:37PM 45.4408 -107.4344 296° West 365 420 16,000 -60 Descending Salt Lake Center
08:38PM 45.4892 -107.5797 295° West 372 428 16,000  Level Salt Lake Center
08:39PM 45.5328 -107.7103 296° West 361 415 16,000 -360 Level Salt Lake Center
08:40PM 45.5711 -107.8256 295° West 299 344 15,300 -1,200 Descending Salt Lake Center
08:41PM 45.6050 -107.9258 296° West 286 329 13,600 -2,040 Descending Salt Lake Center
08:42PM 45.6444 -108.0325 298° West 286 329 11,100 -2,400 Descending Salt Lake Center
08:43PM 45.6825 -108.1319 299° West 288 331 8,700 -2,040 Descending Salt Lake Center
08:44PM 45.7217 -108.2353 299° West 276 318 7,000 -1,260 Descending Salt Lake Center
08:45PM 45.7475 -108.3222 293° West 237 273 6,100 -960 Descending Salt Lake Center
08:46PM 45.7686 -108.3972 292° West 196 226 5,100 -840 Descending Salt Lake Center
08:47PM 45.7844 -108.4533 292° West 159 183 4,400 -780 Descending Salt Lake Center
08:48PM 45.7992 -108.5061 292° West 141 162 3,600 -780 Descending Salt Lake Center
08:50PM 45.8000 -108.5333 300° West  Level FlightAware Approximate
08:57PM 45.8077 -108.5429 300° West  Level Estimated